Norman Y. Mineta San Jose International Airport
KSJC : now visible

Airfield :











YOU CAN JOIN US ON...

 
LOGIN :

Register | Disclaimer

   EN    FR    IT 

 









Legend :    VFR   Marginal VFR   IFR   Intensive IFR   Very Intensive IFR
Visi :
Ceiling :
>= 8 km
>= 3000ft
5 to 8 km
1000 to 3000 ft
1500m to 5 km
500 to 1000 ft
800 to 1500m
200 to 500 ft
< 800m
< 200 ft
Symbols :   Thunderstorms  Fog  Heavy snow  Heavy precipitations  Wind > 20 kt






- Airport Elevation : 62 ft
- IATA code : SJC


KSJC - Norman Y. Mineta San Jose International

CURRENT METAR :
  • 080853Z 11005KT 10SM SCT037 BKN055 BKN080 13/11 A2996 RMK AO2 RAB0754E39 SLP144 P0001 60002 T01280111 58003 $

EXPIRED METARs :
  • 080753Z COR 18004KT 3SM -RA FEW001 BKN046 OVC070 14/11 A2997 RMK AO2 RAB34 SLP149 LAST P0001 T01390111 401830139 $
  • 080725Z 17004KT 10SM FEW001 SCT055 BKN075 14/11 A2997 RMK AO2 T01440106
  • 080653Z 18006KT 10SM FEW060 SCT110 14/11 A2997 RMK AO2 SLP148 T01390106

TAF KSJC
Valid from the 08 at 06:00 until the 09 at 06:00 UTC


080539Z 0806/0906 16010KT P6SM -SHRA BKN030 OVC045
FM081200 13005KT P6SM VCSH BKN015 OVC025
FM082100 32010KT P6SM VCSH BKN030 OVC050
FM090400 31008KT P6SM BKN030



MET'MAP, your aeronautical weather chart ! - Copyright ORBIFLY December 2007 - Disclaimer

ORBIFLY MET'MAP TEAM :

Programming & Development : Alexandra Zaïnal
Concept & original design : Baudouin d'Aumeries
Assistance for programming : Marc-Olivier Méhu
Technical & hardware support : Manuel Goepfert

Contact : metmap@orbifly.com




SOURCES & CREDITS :

   NOAA       Earth
Advisory